createdAt,value
2022-11-23T00:00:13.053Z,3.20
2022-11-23T00:02:41.753Z,3.20
2022-11-23T00:05:10.722Z,3.20
2022-11-23T00:07:39.633Z,3.20
2022-11-23T00:10:11.088Z,3.20
2022-11-23T00:12:39.936Z,3.20
2022-11-23T00:15:10.033Z,3.20
2022-11-23T00:17:38.906Z,3.20
2022-11-23T00:20:10.159Z,3.20
2022-11-23T00:22:38.906Z,3.20
2022-11-23T00:25:10.967Z,3.30
2022-11-23T00:27:39.760Z,3.30
2022-11-23T00:30:10.572Z,3.20
2022-11-23T00:32:39.363Z,3.20
2022-11-23T00:35:08.928Z,3.20
2022-11-23T00:37:38.071Z,3.20
2022-11-23T00:40:10.702Z,3.20
2022-11-23T00:42:39.430Z,3.20
2022-11-23T00:45:09.784Z,3.20
2022-11-23T00:47:39.193Z,3.20
2022-11-23T00:50:09.389Z,3.20
2022-11-23T00:52:38.053Z,3.30
2022-11-23T00:55:09.905Z,3.30
2022-11-23T00:57:39.690Z,3.30
2022-11-23T01:00:12.626Z,3.30
2022-11-23T01:02:41.365Z,3.30
2022-11-23T01:05:11.161Z,3.30
2022-11-23T01:07:40.375Z,3.30
2022-11-23T01:10:11.604Z,3.40
2022-11-23T01:12:43.767Z,3.40
2022-11-23T01:15:12.868Z,3.40
2022-11-23T01:17:41.948Z,3.40
2022-11-23T01:20:12.460Z,3.40
2022-11-23T01:22:41.228Z,3.40
2022-11-23T01:25:12.299Z,3.40
2022-11-23T01:27:41.169Z,3.40
2022-11-23T01:30:12.445Z,3.40
2022-11-23T01:32:41.428Z,3.40
2022-11-23T01:35:11.400Z,3.40
2022-11-23T01:37:40.415Z,3.40
2022-11-23T01:40:14.979Z,3.40
2022-11-23T01:42:56.207Z,3.40
2022-11-23T01:45:41.820Z,3.40
2022-11-23T01:48:18.584Z,3.40
2022-11-23T01:50:52.900Z,3.40
2022-11-23T01:53:22.350Z,3.40
2022-11-23T01:56:00.733Z,3.40
2022-11-23T01:58:34.904Z,3.40
2022-11-23T02:01:04.505Z,3.40
2022-11-23T02:03:38.094Z,3.40
2022-11-23T02:06:15.530Z,3.40
2022-11-23T02:08:45.142Z,3.40
2022-11-23T02:11:17.636Z,3.40
2022-11-23T02:13:49.955Z,3.50
2022-11-23T02:16:20.161Z,3.40
2022-11-23T02:18:52.650Z,3.40
2022-11-23T02:21:22.415Z,3.40
2022-11-23T02:24:02.852Z,3.40
2022-11-23T02:26:36.860Z,3.40
2022-11-23T02:29:12.488Z,3.40
2022-11-23T02:31:41.644Z,3.50
2022-11-23T02:34:10.797Z,3.50
2022-11-23T02:36:42.656Z,3.50
2022-11-23T02:39:15.382Z,3.50
2022-11-23T02:41:48.174Z,3.50
2022-11-23T02:44:33.090Z,3.50
2022-11-23T02:47:02.099Z,3.50
2022-11-23T02:49:31.517Z,3.50
2022-11-23T02:52:00.844Z,3.50
2022-11-23T02:54:29.544Z,3.50
2022-11-23T02:57:00.155Z,3.50
2022-11-23T02:59:30.724Z,3.60
2022-11-23T03:02:00.053Z,3.60
2022-11-23T03:04:29.100Z,3.60
2022-11-23T03:06:58.350Z,3.60
2022-11-23T03:09:28.353Z,3.60
2022-11-23T03:11:58.444Z,3.60
2022-11-23T03:14:28.926Z,3.70
2022-11-23T03:16:57.613Z,3.70
2022-11-23T03:19:26.679Z,3.70
2022-11-23T03:21:55.677Z,3.70
2022-11-23T03:24:24.812Z,3.70
2022-11-23T03:26:54.218Z,3.70
2022-11-23T03:29:26.741Z,3.70
2022-11-23T03:31:55.922Z,3.70
2022-11-23T03:34:25.403Z,3.70
2022-11-23T03:36:54.245Z,3.70
2022-11-23T03:39:23.212Z,3.70
2022-11-23T03:41:52.251Z,3.70
2022-11-23T03:44:21.546Z,3.70
2022-11-23T03:46:51.911Z,3.70
2022-11-23T03:49:20.663Z,3.70
2022-11-23T03:51:49.869Z,3.70
2022-11-23T03:54:18.880Z,3.70
2022-11-23T03:56:47.772Z,3.70
2022-11-23T03:59:16.623Z,3.70
2022-11-23T04:01:46.680Z,3.70
2022-11-23T04:04:19.019Z,3.80
2022-11-23T04:06:47.914Z,3.80
2022-11-23T04:09:16.805Z,3.80
2022-11-23T04:11:45.543Z,3.70
2022-11-23T04:14:14.387Z,3.80
2022-11-23T04:16:43.082Z,3.80
2022-11-23T04:19:12.368Z,3.80
2022-11-23T04:21:42.911Z,3.80
2022-11-23T04:24:11.981Z,3.80
2022-11-23T04:26:41.417Z,3.80
2022-11-23T04:29:10.179Z,3.90
2022-11-23T04:31:39.029Z,3.90
2022-11-23T04:34:07.595Z,3.90
2022-11-23T04:36:36.332Z,3.90
2022-11-23T04:39:07.505Z,3.90
2022-11-23T04:41:36.464Z,3.90
2022-11-23T04:44:05.491Z,3.90
2022-11-23T04:46:36.122Z,3.90
2022-11-23T04:49:05.549Z,3.90
2022-11-23T04:51:34.911Z,4.00
2022-11-23T04:54:05.550Z,4.00
2022-11-23T04:56:34.560Z,4.00
2022-11-23T04:59:03.770Z,4.00
2022-11-23T05:01:32.696Z,4.00
2022-11-23T05:04:01.653Z,4.00
2022-11-23T05:06:30.604Z,4.10
2022-11-23T05:08:59.237Z,4.00
2022-11-23T05:11:29.516Z,4.10
2022-11-23T05:13:58.300Z,4.10
2022-11-23T05:16:28.147Z,4.10
2022-11-23T05:18:57.038Z,4.10
2022-11-23T05:21:25.940Z,4.10
2022-11-23T05:23:55.407Z,4.10
2022-11-23T05:26:24.655Z,4.10
2022-11-23T05:28:55.172Z,4.10
2022-11-23T05:31:24.354Z,4.10
2022-11-23T05:33:53.280Z,4.20
2022-11-23T05:36:22.001Z,4.20
2022-11-23T05:38:51.768Z,4.20
2022-11-23T05:41:20.746Z,4.10
2022-11-23T05:43:50.181Z,4.20
2022-11-23T05:46:20.553Z,4.20
2022-11-23T05:48:49.416Z,4.20
2022-11-23T05:51:18.359Z,4.20
2022-11-23T05:53:47.208Z,4.20
2022-11-23T05:56:15.903Z,4.20
2022-11-23T05:58:44.603Z,4.20
2022-11-23T06:01:13.515Z,4.20
2022-11-23T06:03:44.310Z,4.20
2022-11-23T06:06:13.185Z,4.30
2022-11-23T06:08:44.477Z,4.20
2022-11-23T06:11:17.129Z,4.20
2022-11-23T06:13:49.028Z,4.20
2022-11-23T06:16:17.895Z,4.30
2022-11-23T06:18:48.018Z,4.30
2022-11-23T06:21:16.817Z,4.30
2022-11-23T06:23:48.508Z,4.20
2022-11-23T06:26:17.701Z,4.30
2022-11-23T06:28:46.674Z,4.30
2022-11-23T06:31:15.433Z,4.20
2022-11-23T06:33:44.246Z,4.20
2022-11-23T06:36:15.724Z,4.30
2022-11-23T06:38:44.450Z,4.30
2022-11-23T06:41:13.140Z,4.40
2022-11-23T06:43:42.158Z,4.40
2022-11-23T06:46:13.271Z,4.40
2022-11-23T06:48:45.182Z,4.40
2022-11-23T06:51:16.984Z,4.40
2022-11-23T06:53:46.142Z,4.40
2022-11-23T06:56:15.064Z,4.40
2022-11-23T06:58:45.086Z,4.40
2022-11-23T07:01:14.779Z,4.50
2022-11-23T07:03:43.686Z,4.50
2022-11-23T07:06:14.599Z,4.50
2022-11-23T07:08:46.528Z,4.50
2022-11-23T07:11:15.257Z,4.50
2022-11-23T07:13:43.886Z,4.50
2022-11-23T07:16:12.623Z,4.50
2022-11-23T07:18:41.541Z,4.50
2022-11-23T07:21:10.426Z,4.50
2022-11-23T07:23:41.774Z,4.50
2022-11-23T07:26:10.869Z,4.60
2022-11-23T07:28:39.962Z,4.60
2022-11-23T07:31:09.056Z,4.60
2022-11-23T07:33:41.166Z,4.60
2022-11-23T07:36:10.866Z,4.60
2022-11-23T07:38:41.450Z,4.70
2022-11-23T07:41:10.473Z,4.70
2022-11-23T07:43:39.537Z,4.70
2022-11-23T07:46:08.387Z,4.80
2022-11-23T07:48:36.980Z,4.80
2022-11-23T07:51:05.809Z,4.90
2022-11-23T07:53:36.052Z,4.90
2022-11-23T07:56:07.053Z,4.90
2022-11-23T07:58:36.133Z,5.00
2022-11-23T08:01:05.089Z,5.00
2022-11-23T08:03:34.056Z,5.00
2022-11-23T08:06:03.488Z,5.10
2022-11-23T08:08:32.524Z,5.10
2022-11-23T08:11:01.192Z,5.10
2022-11-23T08:13:32.169Z,5.10
2022-11-23T08:16:00.986Z,5.10
2022-11-23T08:18:30.296Z,5.10
2022-11-23T08:21:02.267Z,5.10
2022-11-23T08:23:31.892Z,5.10
2022-11-23T08:26:00.669Z,5.10
2022-11-23T08:28:30.744Z,5.10
2022-11-23T08:30:59.470Z,5.10
2022-11-23T08:33:28.540Z,5.20
2022-11-23T08:35:57.274Z,5.20
2022-11-23T08:38:26.604Z,5.20
2022-11-23T08:41:01.257Z,5.30
2022-11-23T08:43:31.884Z,5.20
2022-11-23T08:46:06.676Z,5.30
2022-11-23T08:48:36.833Z,5.30
2022-11-23T08:51:05.939Z,5.40
2022-11-23T08:53:34.935Z,5.40
2022-11-23T08:56:04.758Z,5.50
2022-11-23T08:58:37.000Z,5.50
2022-11-23T09:01:10.728Z,5.50
2022-11-23T09:03:40.384Z,5.50
2022-11-23T09:06:10.122Z,5.60
2022-11-23T09:08:40.319Z,5.70
2022-11-23T09:11:14.158Z,5.70
2022-11-23T09:13:44.473Z,5.70
2022-11-23T09:16:15.553Z,5.70
2022-11-23T09:18:49.552Z,5.70
2022-11-23T09:21:18.439Z,5.70
2022-11-23T09:23:47.480Z,5.80
2022-11-23T09:26:16.338Z,5.80
2022-11-23T09:28:46.429Z,5.80
2022-11-23T09:31:15.385Z,5.90
2022-11-23T09:33:44.033Z,6.00
2022-11-23T09:36:13.011Z,6.00
2022-11-23T09:38:56.166Z,6.00
2022-11-23T09:42:05.738Z,6.10
2022-11-23T09:44:53.662Z,6.10
2022-11-23T09:47:43.960Z,6.10
2022-11-23T09:50:24.108Z,6.10
2022-11-23T09:52:54.718Z,6.20
2022-11-23T09:55:41.910Z,6.30
2022-11-23T09:58:17.332Z,6.30
2022-11-23T10:00:55.203Z,6.40
2022-11-23T10:03:24.241Z,6.40
2022-11-23T10:06:06.684Z,6.40
2022-11-23T10:08:48.451Z,6.50
2022-11-23T10:11:54.893Z,6.60
2022-11-23T10:14:45.165Z,6.60
2022-11-23T10:17:29.688Z,6.60
2022-11-23T10:20:21.841Z,6.70
2022-11-23T10:22:59.033Z,6.70
2022-11-23T10:25:38.749Z,6.70
2022-11-23T10:28:20.198Z,6.70
2022-11-23T10:30:58.330Z,6.80
2022-11-23T10:33:35.388Z,6.80
2022-11-23T10:36:04.610Z,6.80
2022-11-23T10:38:33.431Z,6.80
2022-11-23T10:41:10.897Z,6.80
2022-11-23T10:43:48.657Z,6.80
2022-11-23T10:46:33.393Z,6.90
2022-11-23T10:49:20.932Z,6.80
2022-11-23T10:51:59.001Z,6.90
2022-11-23T10:54:33.469Z,7.00
2022-11-23T10:57:23.547Z,7.00
2022-11-23T11:00:01.150Z,7.00
2022-11-23T11:02:30.909Z,7.10
2022-11-23T11:07:54.903Z,7.20
2022-11-23T11:10:50.252Z,7.20
2022-11-23T11:13:26.025Z,7.30
2022-11-23T11:15:58.436Z,7.50
2022-11-23T11:18:30.783Z,7.70
2022-11-23T11:21:06.945Z,7.70
2022-11-23T11:23:42.796Z,7.80
2022-11-23T11:26:21.846Z,8.00
2022-11-23T11:28:54.646Z,8.30
2022-11-23T11:31:41.414Z,8.20
2022-11-23T11:34:28.203Z,8.00
2022-11-23T11:37:06.013Z,7.60
2022-11-23T11:39:43.848Z,7.20
2022-11-23T11:42:22.174Z,7.10
2022-11-23T11:44:56.584Z,7.10
2022-11-23T11:47:36.090Z,7.10
2022-11-23T11:50:23.122Z,7.10
2022-11-23T11:53:03.771Z,7.30
2022-11-23T11:55:50.014Z,7.50
2022-11-23T11:58:21.162Z,7.60
2022-11-23T12:00:52.363Z,7.70
2022-11-23T12:03:38.159Z,8.00
2022-11-23T12:06:15.794Z,8.40
2022-11-23T12:08:53.033Z,8.40
2022-11-23T12:11:23.805Z,8.50
2022-11-23T12:14:01.852Z,8.20
2022-11-23T12:16:39.677Z,8.00
2022-11-23T12:19:20.022Z,7.90
2022-11-23T12:22:19.813Z,7.90
2022-11-23T12:25:14.995Z,7.80
2022-11-23T12:28:02.697Z,7.90
2022-11-23T12:30:44.221Z,8.10
2022-11-23T12:33:56.123Z,8.30
2022-11-23T12:37:06.653Z,8.50
2022-11-23T12:40:15.519Z,8.30
2022-11-23T12:42:50.658Z,8.00
2022-11-23T12:45:55.812Z,8.10
2022-11-23T12:48:42.114Z,8.20
2022-11-23T12:51:25.672Z,8.10
2022-11-23T12:54:19.067Z,8.00
2022-11-23T12:57:06.232Z,7.90
2022-11-23T12:59:48.287Z,7.80
2022-11-23T13:03:09.989Z,7.60
2022-11-23T13:06:23.904Z,7.50
2022-11-23T13:09:42.025Z,7.50
2022-11-23T13:12:51.708Z,7.50
2022-11-23T13:15:44.277Z,7.50
2022-11-23T13:18:24.732Z,7.40
2022-11-23T13:21:24.539Z,7.40
2022-11-23T13:23:54.384Z,7.40
2022-11-23T13:26:25.562Z,7.40
2022-11-23T13:28:58.655Z,7.40
2022-11-23T13:31:31.948Z,7.40
2022-11-23T13:34:04.032Z,7.30
2022-11-23T13:37:11.830Z,7.20
2022-11-23T13:40:05.356Z,7.00
2022-11-23T13:42:36.165Z,7.00
2022-11-23T13:45:34.524Z,6.90
2022-11-23T13:48:48.993Z,6.90
2022-11-23T13:51:10.715Z,6.80
2022-11-23T13:53:43.402Z,7.00
2022-11-23T13:56:34.006Z,7.00
2022-11-23T13:59:32.779Z,7.00
2022-11-23T14:02:19.670Z,7.00
2022-11-23T14:04:53.227Z,7.00
2022-11-23T14:07:27.093Z,7.00
2022-11-23T14:10:08.440Z,6.80
2022-11-23T14:12:50.620Z,6.80
2022-11-23T14:15:23.195Z,6.70
2022-11-23T14:18:21.901Z,6.70
2022-11-23T14:21:14.738Z,6.70
2022-11-23T14:24:34.530Z,6.60
2022-11-23T14:30:40.823Z,6.60
2022-11-23T14:33:34.540Z,6.50
2022-11-23T14:36:27.171Z,6.40
2022-11-23T14:39:53.346Z,6.30
2022-11-23T14:42:28.103Z,6.20
2022-11-23T14:45:03.578Z,6.10
2022-11-23T14:47:34.144Z,6.10
2022-11-23T14:50:03.377Z,6.00
2022-11-23T14:52:37.045Z,5.90
2022-11-23T14:55:08.981Z,5.90
2022-11-23T14:57:47.931Z,5.80
2022-11-23T15:00:33.283Z,5.70
2022-11-23T15:03:42.567Z,5.70
2022-11-23T15:06:14.297Z,5.60
2022-11-23T15:08:54.623Z,5.60
2022-11-23T15:11:31.846Z,5.50
2022-11-23T15:14:04.695Z,5.50
2022-11-23T15:16:42.852Z,5.50
2022-11-23T15:19:31.134Z,5.50
2022-11-23T15:22:01.094Z,5.30
2022-11-23T15:24:31.981Z,5.20
2022-11-23T15:27:12.564Z,5.10
2022-11-23T15:29:41.801Z,5.00
2022-11-23T15:32:31.378Z,5.00
2022-11-23T15:35:07.052Z,5.00
2022-11-23T15:37:49.445Z,5.00
2022-11-23T15:40:21.362Z,5.10
2022-11-23T15:42:52.913Z,4.90
2022-11-23T15:45:40.545Z,5.00
2022-11-23T15:48:16.615Z,5.00
2022-11-23T15:50:53.311Z,4.90
2022-11-23T15:53:27.318Z,4.90
2022-11-23T15:56:03.615Z,4.70
2022-11-23T15:58:35.525Z,4.70
2022-11-23T16:01:13.578Z,4.60
2022-11-23T16:03:55.720Z,4.40
2022-11-23T16:06:41.668Z,4.40
2022-11-23T16:09:54.652Z,4.30
2022-11-23T16:12:30.133Z,4.30
2022-11-23T16:15:23.274Z,4.30
2022-11-23T16:17:52.435Z,4.30
2022-11-23T16:20:25.263Z,4.40
2022-11-23T16:22:57.159Z,4.30
2022-11-23T16:25:31.844Z,4.30
2022-11-23T16:28:04.331Z,4.30
2022-11-23T16:30:39.347Z,4.30
2022-11-23T16:33:15.906Z,4.20
2022-11-23T16:35:46.354Z,4.10
2022-11-23T16:38:15.783Z,4.20
2022-11-23T16:40:48.494Z,4.10
2022-11-23T16:43:18.931Z,4.00
2022-11-23T16:45:53.031Z,3.90
2022-11-23T16:48:44.229Z,3.90
2022-11-23T16:51:14.447Z,4.00
2022-11-23T16:54:12.621Z,4.00
2022-11-23T16:56:34.036Z,3.90
2022-11-23T16:59:04.409Z,3.90
2022-11-23T17:01:40.886Z,4.00
2022-11-23T17:04:11.461Z,4.00
2022-11-23T17:06:41.287Z,4.00
2022-11-23T17:09:10.808Z,4.00
2022-11-23T17:11:44.272Z,4.00
2022-11-23T17:14:19.373Z,4.00
2022-11-23T17:16:49.088Z,4.00
2022-11-23T17:19:20.837Z,3.90
2022-11-23T17:21:50.435Z,4.00
2022-11-23T17:24:19.619Z,3.90
2022-11-23T17:26:53.297Z,3.80
2022-11-23T17:29:24.472Z,3.90
2022-11-23T17:31:53.646Z,3.80
2022-11-23T17:34:24.198Z,3.90
2022-11-23T17:36:54.016Z,4.00
2022-11-23T17:39:26.809Z,4.00
2022-11-23T17:42:04.352Z,4.00
2022-11-23T17:44:41.852Z,4.10
2022-11-23T17:47:26.371Z,4.10
2022-11-23T17:49:58.817Z,4.10
2022-11-23T17:52:28.083Z,4.10
2022-11-23T17:54:57.333Z,4.10
2022-11-23T17:57:28.970Z,4.10
2022-11-23T18:00:03.335Z,4.10
2022-11-23T18:02:32.561Z,4.20
2022-11-23T18:05:02.074Z,4.30
2022-11-23T18:07:31.222Z,4.40
2022-11-23T18:10:00.492Z,4.40
2022-11-23T18:12:29.462Z,4.50
2022-11-23T18:14:59.738Z,4.50
2022-11-23T18:17:29.748Z,4.70
2022-11-23T18:19:58.830Z,4.70
2022-11-23T18:22:27.616Z,4.80
2022-11-23T18:24:56.534Z,4.90
2022-11-23T18:27:25.465Z,4.90
2022-11-23T18:29:54.479Z,5.00
2022-11-23T18:32:24.673Z,5.00
2022-11-23T18:34:53.420Z,5.00
2022-11-23T18:37:22.137Z,5.00
2022-11-23T18:39:51.019Z,5.10
2022-11-23T18:42:20.213Z,5.10
2022-11-23T18:44:49.716Z,5.10
2022-11-23T18:47:18.355Z,5.10
2022-11-23T18:49:48.903Z,5.20
2022-11-23T18:52:17.866Z,5.20
2022-11-23T18:54:46.997Z,5.10
2022-11-23T18:57:22.060Z,5.10
2022-11-23T18:59:58.103Z,5.10
2022-11-23T19:02:30.804Z,5.20
2022-11-23T19:05:01.288Z,5.20
2022-11-23T19:07:30.397Z,5.20
2022-11-23T19:09:59.129Z,5.20
2022-11-23T19:12:30.462Z,5.20
2022-11-23T19:14:59.376Z,5.30
2022-11-23T19:17:28.265Z,5.30
2022-11-23T19:19:57.386Z,5.30
2022-11-23T19:22:27.629Z,5.20
2022-11-23T19:24:56.480Z,5.20
2022-11-23T19:27:25.745Z,5.20
2022-11-23T19:29:54.595Z,5.20
2022-11-23T19:32:26.132Z,5.10
2022-11-23T19:34:55.601Z,5.10
2022-11-23T19:37:24.688Z,5.00
2022-11-23T19:39:54.910Z,5.00
2022-11-23T19:42:23.999Z,4.90
2022-11-23T19:44:54.501Z,4.80
2022-11-23T19:47:23.839Z,4.70
2022-11-23T19:49:52.635Z,4.60
2022-11-23T19:52:21.464Z,4.60
2022-11-23T19:54:55.280Z,4.60
2022-11-23T19:57:26.310Z,4.40
2022-11-23T19:59:55.214Z,4.40
2022-11-23T20:02:28.189Z,4.20
2022-11-23T20:04:57.580Z,4.00
2022-11-23T20:07:26.700Z,4.00
2022-11-23T20:09:55.838Z,3.90
2022-11-23T20:12:26.642Z,3.70
2022-11-23T20:14:55.382Z,3.60
2022-11-23T20:17:27.986Z,3.70
2022-11-23T20:19:59.254Z,3.80
2022-11-23T20:22:28.303Z,3.90
2022-11-23T20:24:57.003Z,4.00
2022-11-23T20:27:28.779Z,4.00
2022-11-23T20:30:00.887Z,4.10
2022-11-23T20:32:30.008Z,4.00
2022-11-23T20:35:03.375Z,3.90
2022-11-23T20:37:40.442Z,3.80
2022-11-23T20:40:11.782Z,3.90
2022-11-23T20:42:42.087Z,3.90
2022-11-23T20:45:12.333Z,3.90
2022-11-23T20:47:41.693Z,3.90
2022-11-23T20:50:11.603Z,3.80
2022-11-23T20:52:40.583Z,3.80
2022-11-23T20:55:10.589Z,3.80
2022-11-23T20:57:39.414Z,3.80
2022-11-23T21:00:12.819Z,3.70
2022-11-23T21:02:42.981Z,3.70
2022-11-23T21:05:12.210Z,3.70
2022-11-23T21:07:43.962Z,3.60
2022-11-23T21:10:34.736Z,3.60
2022-11-23T21:13:37.177Z,3.60
2022-11-23T21:16:19.556Z,3.50
2022-11-23T21:18:48.628Z,3.50
2022-11-23T21:21:17.981Z,3.50
2022-11-23T21:23:51.119Z,3.60
2022-11-23T21:26:24.241Z,3.70
2022-11-23T21:28:53.923Z,3.60
2022-11-23T21:31:25.855Z,3.50
2022-11-23T21:34:05.262Z,3.50
2022-11-23T21:36:38.616Z,3.50
2022-11-23T21:39:10.301Z,3.60
2022-11-23T21:41:40.498Z,3.60
2022-11-23T21:44:11.927Z,3.70
2022-11-23T21:46:43.303Z,3.80
2022-11-23T21:49:13.057Z,3.80
2022-11-23T21:51:46.185Z,3.70
2022-11-23T21:54:16.176Z,3.80
2022-11-23T21:56:47.159Z,3.70
2022-11-23T21:59:17.021Z,3.70
2022-11-23T22:01:48.552Z,3.70
2022-11-23T22:04:17.417Z,3.70
2022-11-23T22:06:46.493Z,3.70
2022-11-23T22:09:15.929Z,3.80
2022-11-23T22:11:45.922Z,3.70
2022-11-23T22:14:19.526Z,3.70
2022-11-23T22:16:54.682Z,3.70
2022-11-23T22:19:23.900Z,3.80
2022-11-23T22:21:52.739Z,3.80
2022-11-23T22:24:22.681Z,3.80
2022-11-23T22:26:51.671Z,3.80
2022-11-23T22:29:20.486Z,3.90
2022-11-23T22:31:50.833Z,3.90
2022-11-23T22:34:22.991Z,3.80
2022-11-23T22:36:52.933Z,3.80
2022-11-23T22:39:21.734Z,3.80
2022-11-23T22:41:50.446Z,3.80
2022-11-23T22:44:19.300Z,3.80
2022-11-23T22:46:50.503Z,3.80
2022-11-23T22:49:19.218Z,3.80
2022-11-23T22:51:48.307Z,3.70
2022-11-23T22:54:17.140Z,3.70
2022-11-23T22:56:45.938Z,3.80
2022-11-23T22:59:14.947Z,3.80
2022-11-23T23:01:43.727Z,3.70
2022-11-23T23:04:14.501Z,3.70
2022-11-23T23:06:43.276Z,3.70
2022-11-23T23:09:12.959Z,3.70
2022-11-23T23:11:41.801Z,3.70
2022-11-23T23:14:10.878Z,3.70
2022-11-23T23:16:39.596Z,3.80
2022-11-23T23:19:08.664Z,3.70
2022-11-23T23:21:39.032Z,3.70
2022-11-23T23:24:09.041Z,3.70
2022-11-23T23:26:38.139Z,3.60
2022-11-23T23:29:06.994Z,3.60
2022-11-23T23:31:38.323Z,3.70
2022-11-23T23:34:07.281Z,3.70
2022-11-23T23:36:39.695Z,3.70
2022-11-23T23:39:09.464Z,3.70
2022-11-23T23:41:38.227Z,3.60
2022-11-23T23:44:07.466Z,3.60
2022-11-23T23:46:36.140Z,3.60
2022-11-23T23:49:05.332Z,3.50
2022-11-23T23:51:34.406Z,3.50
2022-11-23T23:54:06.715Z,3.40
2022-11-23T23:56:38.183Z,3.50
2022-11-23T23:59:07.811Z,3.50
